Time;durP1;ratioP1;P1;durP2;ratioP2;P2;SDS_P1;SDS_P2;PMS_P1;PMS_P2;Temp;Humidity;BMP_temperature;BMP_pressure;BME280_temperature;BME280_humidity;BME280_pressure;Samples;Min_cycle;Max_cycle;Signal;HPM_P1;HPM_P2
2023/09/09 00:00:50;;;;;;;6.63;2.80;;;;;;;;;;10461741;27;20488;-66
2023/09/09 00:05:48;;;;;;;4.40;2.47;;;;;;;;;;10459107;27;20463;-66
2023/09/09 00:10:46;;;;;;;7.35;2.92;;;;;;;;;;10459585;27;20058;-66
2023/09/09 00:15:46;;;;;;;4.20;2.13;;;;;;;;;;10460364;27;20531;-66
2023/09/09 00:20:44;;;;;;;7.35;2.25;;;;;;;;;;10457641;27;20403;-67
2023/09/09 00:25:43;;;;;;;6.70;3.03;;;;;;;;;;10458495;27;20475;-67
2023/09/09 00:30:41;;;;;;;3.58;2.15;;;;;;;;;;10455501;27;20078;-67
2023/09/09 00:35:41;;;;;;;4.65;2.22;;;;;;;;;;10438255;27;20042;-67
2023/09/09 00:40:43;;;;;;;6.07;2.47;;;;;;;;;;10444674;27;20090;-66
2023/09/09 00:45:41;;;;;;;7.68;3.05;;;;;;;;;;10455665;27;21906;-66
2023/09/09 00:50:40;;;;;;;6.10;2.63;;;;;;;;;;10458563;27;20066;-67
2023/09/09 00:55:40;;;;;;;5.70;2.35;;;;;;;;;;10439977;27;20043;-66
2023/09/09 01:00:39;;;;;;;5.35;2.70;;;;;;;;;;10439252;27;20066;-67
2023/09/09 01:05:38;;;;;;;8.00;3.00;;;;;;;;;;10436758;27;20082;-66
2023/09/09 01:10:38;;;;;;;8.15;3.20;;;;;;;;;;10458044;27;20104;-66
2023/09/09 01:15:37;;;;;;;5.72;2.63;;;;;;;;;;10454900;27;20089;-65
2023/09/09 01:20:37;;;;;;;7.07;2.33;;;;;;;;;;10458204;27;20070;-67
2023/09/09 01:25:36;;;;;;;9.73;2.78;;;;;;;;;;10455154;27;20067;-67
2023/09/09 01:30:34;;;;;;;2.58;2.20;;;;;;;;;;10417028;27;20091;-67
2023/09/09 01:35:33;;;;;;;6.25;2.72;;;;;;;;;;10414494;27;20263;-66
2023/09/09 01:40:31;;;;;;;4.93;3.17;;;;;;;;;;10415599;27;20070;-67
2023/09/09 01:45:31;;;;;;;12.82;3.58;;;;;;;;;;10414983;27;20082;-67
2023/09/09 01:50:32;;;;;;;13.20;3.13;;;;;;;;;;10411404;27;20500;-66
2023/09/09 01:55:30;;;;;;;8.20;3.92;;;;;;;;;;10413467;27;20093;-67
2023/09/09 02:00:30;;;;;;;11.95;3.65;;;;;;;;;;10412653;27;20070;-67
2023/09/09 02:05:30;;;;;;;5.57;2.88;;;;;;;;;;10412375;27;20122;-66
2023/09/09 02:10:28;;;;;;;8.18;2.83;;;;;;;;;;10412386;27;20047;-66
2023/09/09 02:15:26;;;;;;;5.65;2.95;;;;;;;;;;10411802;27;20593;-67
2023/09/09 02:20:24;;;;;;;7.53;3.00;;;;;;;;;;10417729;27;20075;-67
2023/09/09 02:25:25;;;;;;;4.38;3.00;;;;;;;;;;10414162;27;20067;-67
2023/09/09 02:30:23;;;;;;;9.02;2.78;;;;;;;;;;10422842;27;20051;-67
2023/09/09 02:35:23;;;;;;;3.88;2.75;;;;;;;;;;10412120;27;20066;-67
2023/09/09 02:40:21;;;;;;;10.27;3.72;;;;;;;;;;10413535;27;20086;-65
2023/09/09 02:45:21;;;;;;;5.88;2.50;;;;;;;;;;10418554;27;20594;-67
2023/09/09 02:50:19;;;;;;;7.85;2.60;;;;;;;;;;10412789;28;20074;-68
2023/09/09 02:55:17;;;;;;;11.38;2.78;;;;;;;;;;10410130;28;20078;-67
2023/09/09 03:00:16;;;;;;;3.08;2.40;;;;;;;;;;10419322;28;20504;-66
2023/09/09 03:05:16;;;;;;;4.28;2.33;;;;;;;;;;10411682;28;20086;-66
2023/09/09 03:10:14;;;;;;;4.32;2.40;;;;;;;;;;10409681;28;20062;-67
2023/09/09 03:15:13;;;;;;;4.35;2.65;;;;;;;;;;10409066;28;20074;-66
2023/09/09 03:20:13;;;;;;;6.50;3.15;;;;;;;;;;10412182;28;20500;-66
2023/09/09 03:25:13;;;;;;;5.35;2.58;;;;;;;;;;10421032;27;20082;-66
2023/09/09 03:30:11;;;;;;;4.10;2.60;;;;;;;;;;10452444;27;20082;-67
2023/09/09 03:35:10;;;;;;;9.95;3.05;;;;;;;;;;10459826;27;20079;-67
2023/09/09 03:40:09;;;;;;;4.78;2.95;;;;;;;;;;10462325;27;20495;-66
2023/09/09 03:45:10;;;;;;;4.85;2.45;;;;;;;;;;10445625;27;20071;-66
2023/09/09 03:50:10;;;;;;;7.05;3.13;;;;;;;;;;10447037;27;20078;-66
2023/09/09 03:55:09;;;;;;;9.02;3.47;;;;;;;;;;10444119;27;20050;-66
2023/09/09 04:00:09;;;;;;;6.45;2.45;;;;;;;;;;10439810;27;20483;-66
2023/09/09 04:05:11;;;;;;;5.55;3.40;;;;;;;;;;10459941;27;20074;-66
2023/09/09 04:10:10;;;;;;;6.80;2.92;;;;;;;;;;10443782;27;20082;-67
2023/09/09 04:15:09;;;;;;;7.05;3.33;;;;;;;;;;10458557;27;20074;-67
2023/09/09 04:20:08;;;;;;;12.05;2.72;;;;;;;;;;10458341;27;20066;-67
2023/09/09 04:25:09;;;;;;;7.95;3.20;;;;;;;;;;10445834;27;20078;-66
2023/09/09 04:30:08;;;;;;;13.77;2.90;;;;;;;;;;10457616;27;20091;-66
2023/09/09 04:35:07;;;;;;;7.18;3.05;;;;;;;;;;10438815;27;20043;-66
2023/09/09 04:40:06;;;;;;;10.10;3.30;;;;;;;;;;10440042;27;20055;-66
2023/09/09 04:45:09;;;;;;;9.10;3.45;;;;;;;;;;10437223;27;20051;-67
2023/09/09 04:50:08;;;;;;;7.82;3.58;;;;;;;;;;10440933;27;20074;-66
2023/09/09 04:55:07;;;;;;;7.57;3.15;;;;;;;;;;10458452;27;20073;-66
2023/09/09 05:00:07;;;;;;;9.13;3.60;;;;;;;;;;10435292;27;20050;-66
2023/09/09 05:05:08;;;;;;;6.88;3.13;;;;;;;;;;10439091;27;20073;-66
2023/09/09 05:10:06;;;;;;;7.78;2.97;;;;;;;;;;10441063;27;20487;-66
2023/09/09 05:15:10;;;;;;;5.95;2.83;;;;;;;;;;10441466;27;20089;-65
2023/09/09 05:20:11;;;;;;;10.52;3.22;;;;;;;;;;10445784;27;20085;-67
2023/09/09 05:25:10;;;;;;;4.00;2.60;;;;;;;;;;10439764;27;20069;-66
2023/09/09 05:30:08;;;;;;;5.28;2.67;;;;;;;;;;10435920;27;20090;-67
2023/09/09 05:35:07;;;;;;;9.93;8.90;;;;;;;;;;10444110;27;20085;-67
2023/09/09 05:40:08;;;;;;;4.55;2.60;;;;;;;;;;10456922;27;20082;-66
2023/09/09 05:45:08;;;;;;;8.60;3.08;;;;;;;;;;10434741;27;20079;-67
2023/09/09 05:50:08;;;;;;;5.47;2.60;;;;;;;;;;10438443;27;20074;-66
2023/09/09 05:55:09;;;;;;;6.70;2.92;;;;;;;;;;10439372;27;20082;-67
2023/09/09 06:00:09;;;;;;;6.85;2.80;;;;;;;;;;10435099;27;20078;-67
2023/09/09 06:05:13;;;;;;;11.60;6.75;;;;;;;;;;10436543;27;20051;-65
2023/09/09 06:10:13;;;;;;;9.88;4.63;;;;;;;;;;10453542;27;20514;-66
2023/09/09 06:15:12;;;;;;;7.18;3.78;;;;;;;;;;10436171;27;20070;-65
2023/09/09 06:20:14;;;;;;;7.55;4.15;;;;;;;;;;10436264;27;20497;-66
2023/09/09 06:25:14;;;;;;;8.25;4.80;;;;;;;;;;10434775;27;20074;-65
2023/09/09 06:30:12;;;;;;;10.57;4.65;;;;;;;;;;10447608;27;20090;-66
2023/09/09 06:35:11;;;;;;;11.85;4.25;;;;;;;;;;10447113;27;20046;-66
2023/09/09 06:40:10;;;;;;;11.27;4.10;;;;;;;;;;10454153;27;20076;-65
2023/09/09 06:45:12;;;;;;;6.32;4.13;;;;;;;;;;10453523;27;20063;-67
2023/09/09 06:50:11;;;;;;;11.40;3.72;;;;;;;;;;10454402;27;20071;-67
2023/09/09 06:55:09;;;;;;;14.02;4.35;;;;;;;;;;10454866;27;20040;-67
2023/09/09 07:00:08;;;;;;;5.93;3.35;;;;;;;;;;10460738;27;20090;-66
2023/09/09 07:05:08;;;;;;;10.52;3.83;;;;;;;;;;10462021;27;20077;-65
2023/09/09 07:10:07;;;;;;;8.15;2.97;;;;;;;;;;10461131;27;20083;-66
2023/09/09 07:15:05;;;;;;;3.47;2.83;;;;;;;;;;10460228;27;20568;-65
2023/09/09 07:20:04;;;;;;;8.85;4.32;;;;;;;;;;10461500;27;20082;-65
2023/09/09 07:25:05;;;;;;;6.85;3.85;;;;;;;;;;10462802;27;20073;-65
2023/09/09 07:30:04;;;;;;;18.00;3.88;;;;;;;;;;10459570;27;20093;-66
2023/09/09 07:35:03;;;;;;;10.07;3.80;;;;;;;;;;10459218;27;20049;-67
2023/09/09 07:40:01;;;;;;;8.68;3.25;;;;;;;;;;10460063;27;20514;-67
2023/09/09 07:45:01;;;;;;;11.38;3.45;;;;;;;;;;10458172;27;20079;-67
2023/09/09 07:49:59;;;;;;;12.18;4.15;;;;;;;;;;10457431;27;20077;-67
2023/09/09 07:54:57;;;;;;;7.28;2.75;;;;;;;;;;10454455;27;20074;-65
2023/09/09 07:59:56;;;;;;;4.00;2.92;;;;;;;;;;10458040;27;20074;-68
2023/09/09 08:04:56;;;;;;;5.13;2.85;;;;;;;;;;10460475;27;20087;-66
2023/09/09 08:09:54;;;;;;;7.63;2.97;;;;;;;;;;10459025;27;20093;-67
2023/09/09 08:15:03;;;;;;;13.10;3.53;;;;;;;;;;10461518;27;20082;-66
2023/09/09 08:20:07;;;;;;;7.00;3.70;;;;;;;;;;10459818;27;20047;-66
2023/09/09 08:25:08;;;;;;;8.85;3.58;;;;;;;;;;10459031;27;20074;-66
2023/09/09 08:30:07;;;;;;;5.93;3.05;;;;;;;;;;10459133;27;20484;-68
2023/09/09 08:35:07;;;;;;;11.35;2.80;;;;;;;;;;10457669;27;20077;-66
2023/09/09 08:40:06;;;;;;;4.30;2.70;;;;;;;;;;10458785;27;20083;-66
2023/09/09 08:45:09;;;;;;;7.70;3.00;;;;;;;;;;10456171;27;20074;-66
2023/09/09 08:50:10;;;;;;;5.95;2.70;;;;;;;;;;10457533;27;20471;-67
2023/09/09 08:55:08;;;;;;;8.38;3.58;;;;;;;;;;10456229;27;20070;-66
2023/09/09 09:00:08;;;;;;;6.70;2.60;;;;;;;;;;10438382;27;20083;-67
2023/09/09 09:05:07;;;;;;;6.55;3.10;;;;;;;;;;10457572;27;20078;-66
2023/09/09 09:10:07;;;;;;;6.15;2.63;;;;;;;;;;10457278;27;20082;-66
2023/09/09 09:15:06;;;;;;;5.30;2.60;;;;;;;;;;10456749;27;20074;-66
2023/09/09 09:20:07;;;;;;;6.82;2.70;;;;;;;;;;10455549;27;20093;-65
2023/09/09 09:25:10;;;;;;;9.20;2.70;;;;;;;;;;10457488;27;20071;-66
2023/09/09 09:30:11;;;;;;;7.10;2.97;;;;;;;;;;10441337;27;20478;-64
2023/09/09 09:35:22;;;;;;;5.63;2.20;;;;;;;;;;10458637;27;20074;-66
2023/09/09 09:40:22;;;;;;;9.93;2.55;;;;;;;;;;10451966;27;20070;-66
2023/09/09 09:45:23;;;;;;;4.18;2.00;;;;;;;;;;10455370;27;20067;-64
2023/09/09 09:50:22;;;;;;;7.40;2.58;;;;;;;;;;10454539;27;20062;-65
2023/09/09 09:55:22;;;;;;;4.90;1.98;;;;;;;;;;10454881;27;20086;-65
2023/09/09 10:00:20;;;;;;;3.60;2.47;;;;;;;;;;10455298;27;20062;-65
2023/09/09 10:05:20;;;;;;;6.18;2.75;;;;;;;;;;10454781;27;20074;-65
2023/09/09 10:10:19;;;;;;;6.13;2.00;;;;;;;;;;10454625;27;20066;-66
2023/09/09 10:15:20;;;;;;;7.18;2.83;;;;;;;;;;10454190;27;20070;-65
2023/09/09 10:20:18;;;;;;;4.93;3.00;;;;;;;;;;10454860;27;20043;-66
2023/09/09 10:25:17;;;;;;;4.20;2.30;;;;;;;;;;10450214;27;20085;-66
2023/09/09 10:30:15;;;;;;;5.90;2.47;;;;;;;;;;10450126;27;20074;-66
2023/09/09 10:35:15;;;;;;;5.05;2.70;;;;;;;;;;10451235;27;20069;-66
2023/09/09 10:40:16;;;;;;;6.22;2.75;;;;;;;;;;10449863;27;20069;-65
2023/09/09 10:45:27;;;;;;;7.28;2.42;;;;;;;;;;10449850;27;20063;-65
2023/09/09 10:50:40;;;;;;;9.18;2.38;;;;;;;;;;10447713;27;20070;-65
2023/09/09 10:55:40;;;;;;;6.97;3.17;;;;;;;;;;10446990;27;20136;-66
2023/09/09 11:00:40;;;;;;;5.25;2.00;;;;;;;;;;10452890;27;20067;-66
2023/09/09 11:05:57;;;;;;;4.00;2.17;;;;;;;;;;10453101;27;20355;-65
2023/09/09 11:11:09;;;;;;;6.10;2.75;;;;;;;;;;10452992;27;20094;-66
2023/09/09 11:16:08;;;;;;;5.22;2.13;;;;;;;;;;10448423;27;20112;-65
2023/09/09 11:21:06;;;;;;;5.07;2.60;;;;;;;;;;10452328;27;20067;-66
2023/09/09 11:26:05;;;;;;;6.80;2.92;;;;;;;;;;10456037;27;20073;-68
2023/09/09 11:31:12;;;;;;;7.82;2.25;;;;;;;;;;10451422;27;20148;-65
2023/09/09 11:36:11;;;;;;;12.70;2.92;;;;;;;;;;10449569;27;20074;-66
2023/09/09 11:41:09;;;;;;;15.75;3.55;;;;;;;;;;10456168;27;20074;-66
2023/09/09 11:46:07;;;;;;;10.52;2.40;;;;;;;;;;10460768;27;20071;-66
2023/09/09 11:51:07;;;;;;;6.38;2.20;;;;;;;;;;10460991;27;20077;-67
2023/09/09 11:56:06;;;;;;;5.35;2.10;;;;;;;;;;10458873;27;20059;-66
2023/09/09 12:01:04;;;;;;;3.95;1.75;;;;;;;;;;10459009;27;20074;-66
2023/09/09 12:06:03;;;;;;;8.90;3.17;;;;;;;;;;10458124;27;20084;-65
2023/09/09 12:11:03;;;;;;;7.15;1.95;;;;;;;;;;10449046;27;20527;-66
2023/09/09 12:16:02;;;;;;;4.75;2.83;;;;;;;;;;10459099;27;20067;-65
2023/09/09 12:21:04;;;;;;;14.68;3.00;;;;;;;;;;10458137;27;20066;-66
2023/09/09 12:26:10;;;;;;;2.67;1.98;;;;;;;;;;10459657;27;20062;-65
2023/09/09 12:31:09;;;;;;;6.88;2.67;;;;;;;;;;10455010;27;20097;-66
2023/09/09 12:36:14;;;;;;;9.23;2.88;;;;;;;;;;10457738;27;20066;-66
2023/09/09 12:41:17;;;;;;;4.47;2.38;;;;;;;;;;10457521;27;20461;-66
2023/09/09 12:46:16;;;;;;;7.45;2.97;;;;;;;;;;10458193;27;20082;-66
2023/09/09 12:51:17;;;;;;;3.63;2.42;;;;;;;;;;10460568;27;20074;-65
2023/09/09 12:56:16;;;;;;;8.45;2.40;;;;;;;;;;10455735;27;20062;-66
2023/09/09 13:01:15;;;;;;;3.30;2.33;;;;;;;;;;10456652;27;20087;-65
2023/09/09 13:06:13;;;;;;;6.53;2.33;;;;;;;;;;10458369;27;20054;-65
2023/09/09 13:11:11;;;;;;;9.60;2.65;;;;;;;;;;10455063;27;20070;-65
2023/09/09 13:16:12;;;;;;;6.45;2.88;;;;;;;;;;10456121;27;20071;-65
2023/09/09 13:21:10;;;;;;;5.53;2.53;;;;;;;;;;10452397;27;20082;-65
2023/09/09 13:26:08;;;;;;;6.68;3.20;;;;;;;;;;10454980;27;20124;-66
2023/09/09 13:31:07;;;;;;;6.03;2.70;;;;;;;;;;10454945;27;20079;-66
2023/09/09 13:36:06;;;;;;;6.85;3.35;;;;;;;;;;10457982;27;20858;-66
2023/09/09 13:41:05;;;;;;;6.00;2.20;;;;;;;;;;10453840;27;20078;-67
2023/09/09 13:46:03;;;;;;;10.55;2.55;;;;;;;;;;10455346;27;20059;-67
2023/09/09 13:51:01;;;;;;;7.47;2.92;;;;;;;;;;10456017;27;20074;-66
2023/09/09 13:56:01;;;;;;;7.85;2.80;;;;;;;;;;10454547;27;20082;-66
2023/09/09 14:00:59;;;;;;;7.28;2.95;;;;;;;;;;10456533;27;20101;-65
2023/09/09 14:05:57;;;;;;;9.02;3.95;;;;;;;;;;10455262;27;20070;-65
2023/09/09 14:10:56;;;;;;;4.57;3.28;;;;;;;;;;10453843;27;20079;-66
2023/09/09 14:15:57;;;;;;;6.75;2.85;;;;;;;;;;10451425;27;20065;-65
2023/09/09 14:20:55;;;;;;;6.10;2.58;;;;;;;;;;10455017;27;20082;-65
2023/09/09 14:25:53;;;;;;;5.28;3.35;;;;;;;;;;10449358;27;20067;-66
2023/09/09 14:30:51;;;;;;;10.02;4.10;;;;;;;;;;10454461;27;20082;-66
2023/09/09 14:35:51;;;;;;;4.10;3.70;;;;;;;;;;10452541;27;20077;-66
2023/09/09 14:40:49;;;;;;;5.53;3.28;;;;;;;;;;10452942;27;20471;-66
2023/09/09 14:45:48;;;;;;;7.80;5.80;;;;;;;;;;10455722;27;20463;-66
2023/09/09 14:50:46;;;;;;;6.15;3.47;;;;;;;;;;10451625;27;20068;-65
2023/09/09 14:55:45;;;;;;;5.57;2.67;;;;;;;;;;10454000;27;20492;-66
2023/09/09 15:00:44;;;;;;;5.60;2.97;;;;;;;;;;10452841;27;20075;-65
2023/09/09 15:05:43;;;;;;;6.88;2.33;;;;;;;;;;10453920;27;20483;-65
2023/09/09 15:10:42;;;;;;;9.80;2.97;;;;;;;;;;10450738;27;20082;-66
2023/09/09 15:15:42;;;;;;;6.95;2.42;;;;;;;;;;10454911;27;20078;-65
2023/09/09 15:20:40;;;;;;;9.35;2.83;;;;;;;;;;10454811;27;20467;-66
2023/09/09 15:25:38;;;;;;;4.18;2.28;;;;;;;;;;10458008;27;20467;-65
2023/09/09 15:30:36;;;;;;;8.40;3.05;;;;;;;;;;10441073;27;20082;-66
2023/09/09 15:35:36;;;;;;;8.55;3.00;;;;;;;;;;10462882;27;20070;-66
2023/09/09 15:40:34;;;;;;;4.97;2.83;;;;;;;;;;10462033;27;20067;-65
2023/09/09 15:45:33;;;;;;;4.15;2.75;;;;;;;;;;10460018;27;20047;-66
2023/09/09 15:50:31;;;;;;;6.18;2.30;;;;;;;;;;10460450;27;20075;-65
2023/09/09 15:55:30;;;;;;;7.88;2.67;;;;;;;;;;10458203;27;20074;-64
2023/09/09 16:00:29;;;;;;;8.70;2.97;;;;;;;;;;10457184;27;20066;-66
2023/09/09 16:05:30;;;;;;;7.95;3.15;;;;;;;;;;10457129;27;20535;-65
2023/09/09 16:10:28;;;;;;;4.68;2.72;;;;;;;;;;10459163;27;20070;-64
2023/09/09 16:15:28;;;;;;;5.40;3.17;;;;;;;;;;10459191;27;20560;-64
2023/09/09 16:20:26;;;;;;;6.55;3.78;;;;;;;;;;10451439;27;20077;-65
2023/09/09 16:25:24;;;;;;;8.35;3.38;;;;;;;;;;10459826;27;20534;-66
2023/09/09 16:30:23;;;;;;;4.50;2.50;;;;;;;;;;10457927;27;20523;-65
2023/09/09 16:35:22;;;;;;;5.72;2.58;;;;;;;;;;10458229;27;20071;-65
2023/09/09 16:40:21;;;;;;;9.63;2.95;;;;;;;;;;10458281;27;20069;-66
2023/09/09 16:45:19;;;;;;;3.97;2.20;;;;;;;;;;10456980;27;20062;-65
2023/09/09 16:50:17;;;;;;;3.63;2.60;;;;;;;;;;10458909;27;20075;-66
2023/09/09 16:55:17;;;;;;;7.05;2.97;;;;;;;;;;10456232;27;20063;-65
2023/09/09 17:00:16;;;;;;;7.65;3.10;;;;;;;;;;10456381;27;20078;-65
2023/09/09 17:05:14;;;;;;;11.45;3.00;;;;;;;;;;10456669;27;20058;-66
2023/09/09 17:10:12;;;;;;;10.85;2.97;;;;;;;;;;10457371;27;20279;-65
2023/09/09 17:15:12;;;;;;;14.77;5.43;;;;;;;;;;10454345;27;20086;-66
2023/09/09 17:20:11;;;;;;;5.30;2.38;;;;;;;;;;10454747;27;20071;-65
2023/09/09 17:25:09;;;;;;;5.97;2.00;;;;;;;;;;10460191;27;20074;-66
2023/09/09 17:30:13;;;;;;;9.88;2.78;;;;;;;;;;10455404;27;20078;-66
2023/09/09 17:35:11;;;;;;;;;;;;;;;;;;10458816;27;20086;-65
2023/09/09 17:40:11;;;;;;;11.90;2.60;;;;;;;;;;10458107;27;19961;-66
2023/09/09 17:45:10;;;;;;;2.67;2.38;;;;;;;;;;10455955;27;20074;-65
2023/09/09 17:50:08;;;;;;;6.72;2.40;;;;;;;;;;10456593;27;20485;-66
2023/09/09 17:55:07;;;;;;;6.72;2.53;;;;;;;;;;10456982;27;20077;-65
2023/09/09 18:00:08;;;;;;;3.20;2.28;;;;;;;;;;10454473;27;20079;-65
2023/09/09 18:05:07;;;;;;;4.97;2.13;;;;;;;;;;10455013;27;20078;-66
2023/09/09 18:10:06;;;;;;;2.78;2.30;;;;;;;;;;10456045;27;20438;-66
2023/09/09 18:15:04;;;;;;;6.50;2.20;;;;;;;;;;10456036;27;20074;-67
2023/09/09 18:20:04;;;;;;;3.35;2.33;;;;;;;;;;10454930;27;20067;-66
2023/09/09 18:25:03;;;;;;;4.72;2.30;;;;;;;;;;10455372;27;20073;-67
2023/09/09 18:30:01;;;;;;;8.30;2.65;;;;;;;;;;10453433;27;20498;-67
2023/09/09 18:34:59;;;;;;;7.65;2.30;;;;;;;;;;10453435;27;20169;-66
2023/09/09 18:39:59;;;;;;;2.38;2.03;;;;;;;;;;10453217;27;20062;-65
2023/09/09 18:44:57;;;;;;;7.30;2.85;;;;;;;;;;10451985;27;20062;-62
2023/09/09 18:49:55;;;;;;;3.58;2.28;;;;;;;;;;10457011;27;20067;-64
2023/09/09 18:54:54;;;;;;;3.03;2.30;;;;;;;;;;10454868;27;20078;-65
2023/09/09 18:59:53;;;;;;;5.85;2.45;;;;;;;;;;10455832;27;20522;-63
2023/09/09 19:04:51;;;;;;;7.82;2.20;;;;;;;;;;10454745;27;20070;-66
2023/09/09 19:09:50;;;;;;;5.85;2.40;;;;;;;;;;10453300;27;20079;-67
2023/09/09 19:14:48;;;;;;;6.55;2.60;;;;;;;;;;10458397;27;20500;-66
2023/09/09 19:19:48;;;;;;;4.32;2.83;;;;;;;;;;10455525;27;20074;-66
2023/09/09 19:24:46;;;;;;;8.02;2.40;;;;;;;;;;10454810;27;20070;-65
2023/09/09 19:29:45;;;;;;;6.90;2.65;;;;;;;;;;10443927;27;20071;-65
2023/09/09 19:34:43;;;;;;;3.45;2.20;;;;;;;;;;10455717;27;20081;-64
2023/09/09 19:39:43;;;;;;;6.57;2.08;;;;;;;;;;10459677;27;20601;-64
2023/09/09 19:44:41;;;;;;;6.20;2.30;;;;;;;;;;10453240;27;20077;-66
2023/09/09 19:49:42;;;;;;;4.63;2.33;;;;;;;;;;10458023;27;20074;-66
2023/09/09 19:54:40;;;;;;;7.00;3.00;;;;;;;;;;10451087;27;20071;-66
2023/09/09 19:59:40;;;;;;;7.53;3.20;;;;;;;;;;10449211;27;20058;-66
2023/09/09 20:04:38;;;;;;;4.43;2.72;;;;;;;;;;10455868;27;20062;-67
2023/09/09 20:09:38;;;;;;;4.85;2.88;;;;;;;;;;10458551;27;20349;-67
2023/09/09 20:14:36;;;;;;;7.22;2.75;;;;;;;;;;10443699;27;20519;-65
2023/09/09 20:19:36;;;;;;;6.38;3.00;;;;;;;;;;10458557;27;20067;-65
2023/09/09 20:24:34;;;;;;;6.93;2.88;;;;;;;;;;10460585;27;20070;-66
2023/09/09 20:29:33;;;;;;;6.65;2.92;;;;;;;;;;10459816;27;20063;-65
2023/09/09 20:34:31;;;;;;;5.07;2.88;;;;;;;;;;10458827;27;20078;-65
2023/09/09 20:39:31;;;;;;;4.45;2.92;;;;;;;;;;10461725;27;20054;-65
2023/09/09 20:44:29;;;;;;;9.07;2.90;;;;;;;;;;10460860;27;20078;-67
2023/09/09 20:49:27;;;;;;;5.93;2.90;;;;;;;;;;10455661;27;20070;-65
2023/09/09 20:54:25;;;;;;;7.45;2.92;;;;;;;;;;10456251;27;20078;-67
2023/09/09 20:59:25;;;;;;;6.63;2.88;;;;;;;;;;10459121;27;20067;-67
2023/09/09 21:04:23;;;;;;;6.15;3.20;;;;;;;;;;10456895;27;20078;-67
2023/09/09 21:09:22;;;;;;;4.22;3.25;;;;;;;;;;10457222;27;20303;-67
2023/09/09 21:14:20;;;;;;;10.52;4.57;;;;;;;;;;10456887;27;20484;-66
2023/09/09 21:19:21;;;;;;;5.30;3.85;;;;;;;;;;10456119;27;20067;-66
2023/09/09 21:24:20;;;;;;;11.27;4.07;;;;;;;;;;10457941;27;20450;-66
2023/09/09 21:29:18;;;;;;;6.10;3.78;;;;;;;;;;10457233;27;20071;-66
2023/09/09 21:34:16;;;;;;;7.93;3.55;;;;;;;;;;10457023;27;20093;-66
2023/09/09 21:39:16;;;;;;;8.18;3.92;;;;;;;;;;10456208;27;20070;-67
2023/09/09 21:44:14;;;;;;;7.85;4.07;;;;;;;;;;10454944;27;20089;-66
2023/09/09 21:49:12;;;;;;;5.25;4.40;;;;;;;;;;10455766;27;20070;-65
2023/09/09 21:54:10;;;;;;;6.72;4.20;;;;;;;;;;10456724;27;20085;-66
2023/09/09 21:59:10;;;;;;;12.00;3.97;;;;;;;;;;10454360;27;20073;-66
2023/09/09 22:04:08;;;;;;;9.13;4.45;;;;;;;;;;10456706;27;20085;-65
2023/09/09 22:09:07;;;;;;;8.02;3.65;;;;;;;;;;10455022;27;20043;-66
2023/09/09 22:14:05;;;;;;;4.75;3.47;;;;;;;;;;10452482;27;20078;-66
2023/09/09 22:19:05;;;;;;;8.43;4.15;;;;;;;;;;10454647;27;20075;-66
2023/09/09 22:24:03;;;;;;;5.00;4.50;;;;;;;;;;10454085;27;20078;-66
2023/09/09 22:29:01;;;;;;;6.00;4.50;;;;;;;;;;10451774;27;20084;-67
2023/09/09 22:34:00;;;;;;;8.63;4.70;;;;;;;;;;10455041;27;20075;-66
2023/09/09 22:39:01;;;;;;;9.40;4.10;;;;;;;;;;10454990;27;20090;-66
2023/09/09 22:43:59;;;;;;;5.88;4.25;;;;;;;;;;10435117;27;20047;-66
2023/09/09 22:48:57;;;;;;;5.47;4.10;;;;;;;;;;10451227;27;20035;-66
2023/09/09 22:53:56;;;;;;;6.65;4.10;;;;;;;;;;10450077;27;20081;-66
2023/09/09 22:58:56;;;;;;;9.88;3.83;;;;;;;;;;10455516;27;20066;-66
2023/09/09 23:03:54;;;;;;;4.50;3.65;;;;;;;;;;10453555;27;20062;-66
2023/09/09 23:08:53;;;;;;;6.93;4.00;;;;;;;;;;10452950;27;20074;-65
2023/09/09 23:13:51;;;;;;;5.85;4.35;;;;;;;;;;10453561;27;20066;-67
2023/09/09 23:18:51;;;;;;;7.95;4.05;;;;;;;;;;10455117;27;20063;-66
2023/09/09 23:23:49;;;;;;;4.32;3.47;;;;;;;;;;10453628;27;20421;-67
2023/09/09 23:28:49;;;;;;;7.07;4.28;;;;;;;;;;10454140;27;20070;-67
2023/09/09 23:33:47;;;;;;;5.43;3.33;;;;;;;;;;10454251;27;20090;-67
2023/09/09 23:38:50;;;;;;;5.35;3.72;;;;;;;;;;10457848;27;20058;-66
2023/09/09 23:43:48;;;;;;;9.23;4.20;;;;;;;;;;10460915;27;20067;-66
2023/09/09 23:48:47;;;;;;;7.53;4.63;;;;;;;;;;10461075;27;20079;-67
2023/09/09 23:53:45;;;;;;;10.07;4.70;;;;;;;;;;10461783;27;20071;-65
2023/09/09 23:58:45;;;;;;;9.25;4.45;;;;;;;;;;10460191;27;20073;-66
